createdAt,value
2018-06-30T00:01:23.383Z,94425
2018-06-30T00:06:20.682Z,94376.5
2018-06-30T00:11:18.084Z,94459.7
2018-06-30T00:16:15.596Z,94462
2018-06-30T00:21:13.029Z,94358.2
2018-06-30T00:26:10.410Z,94412.6
2018-06-30T00:31:07.541Z,94456.6
2018-06-30T00:36:05.030Z,94449.2
2018-06-30T00:41:02.400Z,94369
2018-06-30T00:45:59.762Z,94449.8
2018-06-30T00:50:57.700Z,94450
2018-06-30T00:55:55.188Z,94359.3
2018-06-30T01:00:52.567Z,94436.5
2018-06-30T01:05:50.039Z,94436.3
2018-06-30T01:10:47.416Z,94324.3
2018-06-30T01:15:45.676Z,94431.9
2018-06-30T01:20:43.408Z,94348.7
2018-06-30T01:25:40.672Z,94434.9
2018-06-30T01:30:38.786Z,94300.6
2018-06-30T01:35:35.815Z,94424.1
2018-06-30T01:40:33.139Z,94424.7
2018-06-30T01:45:30.692Z,94414.8
2018-06-30T01:50:27.861Z,94413.4
2018-06-30T01:55:25.519Z,94409.6
2018-06-30T02:00:22.697Z,94405.8
2018-06-30T02:05:20.590Z,94327.2
2018-06-30T02:10:18.420Z,94414.8
2018-06-30T02:15:15.331Z,94330.5
2018-06-30T02:20:13.782Z,94331.2
2018-06-30T02:25:11.139Z,94402.2
2018-06-30T02:30:08.117Z,94405.6
2018-06-30T02:35:05.436Z,94412.1
2018-06-30T02:40:02.512Z,94409.4
2018-06-30T02:44:59.764Z,94214.3
2018-06-30T02:49:57.147Z,94410.2
2018-06-30T02:54:54.995Z,94414
2018-06-30T02:59:52.226Z,94332.4
2018-06-30T03:04:49.417Z,94421
2018-06-30T03:09:46.582Z,94366.8
2018-06-30T03:14:44.389Z,94413.4
2018-06-30T03:19:41.169Z,94341.3
2018-06-30T03:24:38.553Z,94419.5
2018-06-30T03:29:35.921Z,94419.9
2018-06-30T03:34:34.375Z,94273.6
2018-06-30T03:39:31.512Z,94430
2018-06-30T03:44:29.117Z,94414.4
2018-06-30T03:49:26.740Z,94422.2
2018-06-30T03:54:24.638Z,94299.5
2018-06-30T03:59:21.685Z,94422
2018-06-30T04:04:18.552Z,94432.8
2018-06-30T04:09:15.877Z,94497.4
2018-06-30T04:14:13.931Z,94434
2018-06-30T04:19:11.175Z,94428.1
2018-06-30T04:24:08.415Z,94432.8
2018-06-30T04:29:05.263Z,94402.8
2018-06-30T04:34:02.456Z,94437.2
2018-06-30T04:38:59.553Z,94430.9
2018-06-30T04:43:56.806Z,94428.6
2018-06-30T04:48:54.139Z,94428.3
2018-06-30T04:53:51.944Z,94412.5
2018-06-30T04:58:48.439Z,94246.8
2018-06-30T05:03:45.901Z,94444
2018-06-30T05:08:43.044Z,94444.8
2018-06-30T05:13:40.476Z,94333.9
2018-06-30T05:18:37.506Z,94447.1
2018-06-30T05:23:34.879Z,94194.1
2018-06-30T05:28:31.935Z,94426.2
2018-06-30T05:33:29.017Z,94452.6
2018-06-30T05:38:27.053Z,94458.5
2018-06-30T05:43:24.346Z,94458.7
2018-06-30T05:48:21.529Z,94453.8
2018-06-30T05:53:18.913Z,94454.9
2018-06-30T05:58:15.903Z,94462.1
2018-06-30T06:03:13.622Z,94447.3
2018-06-30T06:08:11.576Z,94382.8
2018-06-30T06:13:08.679Z,94464
2018-06-30T06:18:04.828Z,94454.5
2018-06-30T06:23:01.576Z,94406.7
2018-06-30T06:27:58.587Z,94427.8
2018-06-30T06:32:56.131Z,94465.5
2018-06-30T06:37:53.204Z,94465
2018-06-30T06:42:50.613Z,94461.9
2018-06-30T06:47:49.554Z,94468.8
2018-06-30T06:52:53.021Z,94464.4
2018-06-30T06:57:47.495Z,94453.7
2018-06-30T07:02:44.717Z,94456
2018-06-30T07:07:42.093Z,94454.8
2018-06-30T07:12:39.210Z,94453.8
2018-06-30T07:17:37.732Z,94458.6
2018-06-30T07:22:35.181Z,94468.5
2018-06-30T07:27:32.660Z,94475.3
2018-06-30T07:32:29.624Z,94479.9
2018-06-30T07:37:27.270Z,94482
2018-06-30T07:42:24.059Z,94488.1
2018-06-30T07:47:21.166Z,94490
2018-06-30T07:52:18.296Z,94489.4
2018-06-30T07:57:15.506Z,94494.5
2018-06-30T08:02:13.100Z,94489.4
2018-06-30T08:07:10.798Z,94490.5
2018-06-30T08:12:08.378Z,94488.1
2018-06-30T08:17:06.300Z,94412.1
2018-06-30T08:22:03.708Z,94496.1
2018-06-30T08:27:01.320Z,94492.6
2018-06-30T08:31:59.251Z,94502.9
2018-06-30T08:36:57.139Z,94500.4
2018-06-30T08:41:54.403Z,94502.4
2018-06-30T08:46:51.802Z,94499.5
2018-06-30T08:51:48.979Z,94510.5
2018-06-30T08:56:46.174Z,94521.4
2018-06-30T09:01:43.479Z,94521
2018-06-30T09:06:41.058Z,94523.3
2018-06-30T09:11:39.703Z,94468.2
2018-06-30T09:16:37.031Z,94533.9
2018-06-30T09:21:34.550Z,94432.7
2018-06-30T09:26:32.045Z,94553.6
2018-06-30T09:31:29.164Z,94546.6
2018-06-30T09:36:26.688Z,94431.5
2018-06-30T09:41:24.434Z,94474.2
2018-06-30T09:46:21.988Z,94553.6
2018-06-30T09:51:19.746Z,94549
2018-06-30T09:56:17.270Z,94465.7
2018-06-30T10:01:13.866Z,94562.1
2018-06-30T10:06:11.323Z,94555.9
2018-06-30T10:11:08.787Z,94551.7
2018-06-30T10:16:06.293Z,94567
2018-06-30T10:21:03.138Z,94457.9
2018-06-30T10:26:00.536Z,94475.2
2018-06-30T10:30:58.008Z,94486.4
2018-06-30T10:35:56.229Z,94567.5
2018-06-30T10:40:53.030Z,94485.1
2018-06-30T10:45:50.529Z,94479.7
2018-06-30T10:50:47.660Z,94560.7
2018-06-30T10:55:45.150Z,94555.5
2018-06-30T11:00:41.641Z,94560.7
2018-06-30T11:05:39.270Z,94562.4
2018-06-30T11:10:36.821Z,94474.4
2018-06-30T11:15:35.218Z,94519.4
2018-06-30T11:20:32.570Z,94465.5
2018-06-30T11:25:30.672Z,94546
2018-06-30T11:30:28.897Z,94545.6
2018-06-30T11:35:26.602Z,94464.8
2018-06-30T11:40:24.424Z,94531.7
2018-06-30T11:45:22.174Z,94528.5
2018-06-30T11:50:18.083Z,94521.5
2018-06-30T11:55:15.555Z,94533.9
2018-06-30T12:00:13.392Z,94455.9
2018-06-30T12:05:11.996Z,94537.5
2018-06-30T12:10:09.790Z,94468.2
2018-06-30T12:15:07.800Z,94464.1
2018-06-30T12:20:06.061Z,94541
2018-06-30T12:25:04.217Z,94544.3
2018-06-30T12:30:02.190Z,94528.1
2018-06-30T12:35:00.243Z,94527.1
2018-06-30T12:39:58.327Z,94418.7
2018-06-30T12:44:56.140Z,94524.4
2018-06-30T12:49:54.203Z,94534.9
2018-06-30T12:54:52.025Z,94528.1
2018-06-30T12:59:50.155Z,94542.6
2018-06-30T13:04:48.534Z,94530
2018-06-30T13:09:45.929Z,94536.8
2018-06-30T13:14:44.110Z,94537.8
2018-06-30T13:19:42.728Z,94524.4
2018-06-30T13:24:40.938Z,94524.9
2018-06-30T13:29:39.291Z,94524.4
2018-06-30T13:34:37.340Z,94538.7
2018-06-30T13:39:36.185Z,94541.6
2018-06-30T13:44:33.796Z,94466.8
2018-06-30T13:49:31.588Z,94540.7
2018-06-30T13:54:29.711Z,94530.8
2018-06-30T13:59:27.324Z,94534.6
2018-06-30T14:04:25.302Z,94523.2
2018-06-30T14:09:22.574Z,94547.3
2018-06-30T14:14:21.405Z,94545.5
2018-06-30T14:19:19.083Z,94560.5
2018-06-30T14:24:17.478Z,94557.9
2018-06-30T14:29:15.447Z,94543
2018-06-30T14:34:13.434Z,94573.7
2018-06-30T14:39:11.109Z,94582.7
2018-06-30T14:44:09.921Z,94586.1
2018-06-30T14:49:08.427Z,94625.1
2018-06-30T14:54:06.089Z,94613.2
2018-06-30T14:59:04.263Z,93890.6
2018-06-30T15:04:01.594Z,94630.7
2018-06-30T15:08:59.100Z,94635.2
2018-06-30T15:13:54.863Z,94643.8
2018-06-30T15:18:52.665Z,94646.7
2018-06-30T15:23:50.332Z,94653.5
2018-06-30T15:28:48.634Z,94654.9
2018-06-30T15:33:46.400Z,94664.7
2018-06-30T15:38:44.142Z,94608.2
2018-06-30T15:43:41.896Z,94671.7
2018-06-30T15:48:39.693Z,94595
2018-06-30T15:53:37.887Z,94671.6
2018-06-30T15:58:35.744Z,94599.4
2018-06-30T16:03:33.347Z,94668
2018-06-30T16:08:31.229Z,94680.9
2018-06-30T16:13:28.995Z,94685
2018-06-30T16:18:26.934Z,94611.9
2018-06-30T16:23:24.654Z,94691.3
2018-06-30T16:28:23.153Z,94624.6
2018-06-30T16:33:20.973Z,94696.5
2018-06-30T16:38:19.881Z,94707.7
2018-06-30T16:43:20.912Z,94709.4
2018-06-30T16:48:19.179Z,94673
2018-06-30T16:53:17.433Z,94730.2
2018-06-30T16:58:16.112Z,94654
2018-06-30T17:03:13.968Z,94665.5
2018-06-30T17:08:12.633Z,94748.2
2018-06-30T17:13:10.988Z,94656.4
2018-06-30T17:18:09.710Z,94736.4
2018-06-30T17:23:07.399Z,94745.1
2018-06-30T17:28:05.397Z,94678.8
2018-06-30T17:33:03.050Z,94677.8
2018-06-30T17:38:00.699Z,94736.3
2018-06-30T17:42:58.841Z,94705.9
2018-06-30T17:47:57.079Z,94715.5
2018-06-30T17:52:55.070Z,94766.2
2018-06-30T17:57:53.004Z,94733.3
2018-06-30T18:02:50.870Z,94812.7
2018-06-30T18:07:49.415Z,94807.6
2018-06-30T18:12:47.169Z,94821.8
2018-06-30T18:17:46.029Z,94833
2018-06-30T18:22:43.566Z,94824.2
2018-06-30T18:27:40.988Z,94863.1
2018-06-30T18:32:38.754Z,94868.1
2018-06-30T18:37:36.653Z,94875
2018-06-30T18:42:34.578Z,94883.3
2018-06-30T18:47:32.957Z,94894.6
2018-06-30T18:52:30.628Z,94897.2
2018-06-30T18:57:29.144Z,94906.4
2018-06-30T19:02:27.016Z,94920.6
2018-06-30T19:07:24.296Z,94924.1
2018-06-30T19:12:21.767Z,94930
2018-06-30T19:17:20.495Z,94939.8
2018-06-30T19:22:19.102Z,94856.1
2018-06-30T19:27:17.098Z,94859.4
2018-06-30T19:32:14.922Z,94949.9
2018-06-30T19:37:13.118Z,94871.9
2018-06-30T19:42:11.620Z,94949.5
2018-06-30T19:47:09.332Z,94931.5
2018-06-30T19:52:06.672Z,94966.4
2018-06-30T19:57:04.029Z,94888.6
2018-06-30T20:02:01.601Z,94969.1
2018-06-30T20:06:59.143Z,94974.5
2018-06-30T20:11:57.111Z,94975.1
2018-06-30T20:16:55.031Z,94887.2
2018-06-30T20:21:53.445Z,94971.3
2018-06-30T20:26:51.575Z,94903.4
2018-06-30T20:31:49.194Z,94899.4
2018-06-30T20:36:47.022Z,94908
2018-06-30T20:41:44.313Z,94980.7
2018-06-30T20:46:42.645Z,94908.4
2018-06-30T20:51:40.548Z,94993.5
2018-06-30T20:56:39.638Z,95017.6
2018-06-30T21:01:37.892Z,95024.5
2018-06-30T21:06:35.294Z,95027.2
2018-06-30T21:11:33.072Z,95033.6
2018-06-30T21:16:31.145Z,95037.8
2018-06-30T21:21:29.246Z,95043.1
2018-06-30T21:26:27.168Z,94970.4
2018-06-30T21:31:25.284Z,94982.6
2018-06-30T21:36:23.268Z,95059.5
2018-06-30T21:41:21.735Z,94978.6
2018-06-30T21:46:19.374Z,95057.9
2018-06-30T21:51:18.128Z,94988.9
2018-06-30T21:56:15.318Z,95060.8
2018-06-30T22:01:13.947Z,94984.2
2018-06-30T22:06:12.750Z,94740.2
2018-06-30T22:11:10.581Z,95066
2018-06-30T22:16:08.786Z,95063.5
2018-06-30T22:21:06.828Z,95071.7
2018-06-30T22:26:04.958Z,95075.7
2018-06-30T22:31:02.686Z,95082
2018-06-30T22:36:01.473Z,95016.2
2018-06-30T22:40:59.203Z,95080.3
2018-06-30T22:45:57.192Z,95080.3
2018-06-30T22:50:55.258Z,95053.3
2018-06-30T22:55:53.340Z,95083.9
2018-06-30T23:00:51.486Z,95089.2
2018-06-30T23:05:49.312Z,95078.7
2018-06-30T23:10:47.548Z,95077.4
2018-06-30T23:15:45.724Z,95004
2018-06-30T23:20:44.538Z,95079.9
2018-06-30T23:25:42.549Z,95001.9
2018-06-30T23:30:40.112Z,95089
2018-06-30T23:35:38.649Z,95018.3
2018-06-30T23:40:37.214Z,95094.6
2018-06-30T23:45:35.037Z,95085.4
2018-06-30T23:50:32.627Z,95096.1
2018-06-30T23:55:30.596Z,95009.6
